Leavenworth, Washington
Current Conditions -  °F | °C
As of 6:55 PM on Saturday 22 Nov 2014 (Local Time) from KEAT Reporting Station
Clear Clear  
Wind Chill: 32°   Ceiling: Unl
Heat Index: 42°   Visibility: 10mi
Dew Point: 31°   Wind: 24mph
Humidity: 65%   Direction: 310°NW
Pressure: 29.9"   Gusts: NA
Location:  47.6°N, 120.66°W
Report Text: KEAT 230255Z AUTO 31021KT 10SM CLR 06/M01 A2990 RMK AO2 PK WND 31027/0247 SLP133 T00561006 51029
Loading
Personal Weather Stations






























Interactive Weather Map New forecast layout! Learn more

10-Day Weather Forecast

Advertisements
Track Severe Weather on mobile